Time;durP1;ratioP1;P1;durP2;ratioP2;P2;SDS_P1;SDS_P2;PMS_P1;PMS_P2;Temp;Humidity;BMP_temperature;BMP_pressure;BME280_temperature;BME280_humidity;BME280_pressure;Samples;Min_cycle;Max_cycle;Signal;HPM_P1;HPM_P2
2021/04/30 00:01:15;;;;;;;7.37;6.83;;;9.30;99.90;;;;;;5010006;28;20437;-67
2021/04/30 00:03:40;;;;;;;7.20;6.60;;;9.30;99.90;;;;;;5010333;28;20488;-67
2021/04/30 00:06:06;;;;;;;7.30;6.70;;;9.30;99.90;;;;;;5010437;28;20207;-67
2021/04/30 00:08:31;;;;;;;7.90;7.20;;;9.50;99.90;;;;;;5010360;28;20203;-67
2021/04/30 00:10:57;;;;;;;8.37;7.67;;;9.50;99.90;;;;;;5009956;28;20178;-67
2021/04/30 00:13:23;;;;;;;8.00;7.30;;;9.50;99.90;;;;;;5010378;28;21719;-67
2021/04/30 00:15:49;;;;;;;7.67;6.73;;;9.50;99.90;;;;;;5011088;28;20453;-67
2021/04/30 00:18:14;;;;;;;8.63;7.93;;;9.60;99.90;;;;;;5010302;28;20541;-67
2021/04/30 00:20:47;;;;;;;8.13;7.53;;;9.60;99.90;;;;;;5008144;28;20182;-67
2021/04/30 00:23:13;;;;;;;8.70;8.00;;;9.60;99.90;;;;;;5009824;28;20445;-67
2021/04/30 00:25:41;;;;;;;8.77;8.00;;;9.60;99.90;;;;;;5010396;28;20203;-67
2021/04/30 00:28:07;;;;;;;8.30;7.60;;;9.60;99.90;;;;;;5009896;28;20691;-67
2021/04/30 00:30:34;;;;;;;7.90;7.20;;;9.60;99.90;;;;;;5009549;28;20472;-67
2021/04/30 00:32:59;;;;;;;8.07;7.37;;;9.70;99.90;;;;;;5010136;28;20441;-67
2021/04/30 00:35:25;;;;;;;10.37;7.67;;;9.80;99.90;;;;;;5009990;28;20457;-67
2021/04/30 00:37:51;;;;;;;8.80;8.00;;;9.80;99.90;;;;;;5010269;28;20604;-67
2021/04/30 00:40:17;;;;;;;9.57;8.70;;;9.70;99.90;;;;;;5009207;28;20209;-67
2021/04/30 00:42:43;;;;;;;8.20;7.40;;;9.70;99.90;;;;;;5010121;28;20191;-67
2021/04/30 00:45:15;;;;;;;8.40;7.63;;;9.60;99.90;;;;;;5010036;28;20992;-67
2021/04/30 00:47:41;;;;;;;7.90;7.27;;;9.60;99.90;;;;;;5009862;28;20187;-67
2021/04/30 00:50:09;;;;;;;8.80;8.10;;;9.60;99.90;;;;;;5009490;28;20846;-67
2021/04/30 00:52:38;;;;;;;8.27;7.57;;;9.60;99.90;;;;;;5011594;28;20254;-67
2021/04/30 00:55:10;;;;;;;7.83;7.13;;;9.70;99.90;;;;;;5013910;28;20458;-67
2021/04/30 00:57:36;;;;;;;9.47;8.57;;;9.70;99.90;;;;;;5013705;28;20449;-67
2021/04/30 01:00:07;;;;;;;9.07;8.37;;;9.60;99.90;;;;;;5012910;28;20433;-67
2021/04/30 01:02:33;;;;;;;10.00;9.00;;;9.50;99.90;;;;;;5014155;28;20449;-67
2021/04/30 01:05:00;;;;;;;8.67;7.87;;;9.40;99.90;;;;;;5013502;28;20449;-67
2021/04/30 01:07:25;;;;;;;8.77;8.00;;;9.40;99.90;;;;;;5013750;28;20225;-67
2021/04/30 01:09:51;;;;;;;9.33;8.53;;;9.40;99.90;;;;;;5013320;28;20429;-67
2021/04/30 01:12:16;;;;;;;9.07;8.27;;;9.40;99.90;;;;;;5013889;28;20179;-67
2021/04/30 01:14:42;;;;;;;8.20;7.50;;;9.50;99.90;;;;;;5013114;28;20293;-67
2021/04/30 01:17:08;;;;;;;8.10;7.30;;;9.50;99.90;;;;;;5013671;28;20179;-67
2021/04/30 01:19:33;;;;;;;8.50;7.80;;;9.60;99.90;;;;;;5012794;28;20179;-67
2021/04/30 01:22:00;;;;;;;8.30;7.60;;;9.60;99.90;;;;;;5013001;28;20214;-67
2021/04/30 01:24:25;;;;;;;9.43;8.53;;;9.60;99.90;;;;;;5013302;28;20286;-67
2021/04/30 01:26:52;;;;;;;8.90;8.10;;;9.60;99.90;;;;;;5013424;28;20508;-67
2021/04/30 01:29:19;;;;;;;8.37;7.57;;;9.50;99.90;;;;;;5012135;28;20593;-67
2021/04/30 01:31:45;;;;;;;8.50;7.70;;;9.40;99.90;;;;;;5013234;28;20453;-67
2021/04/30 01:34:11;;;;;;;10.03;9.03;;;9.40;99.90;;;;;;5013355;28;20782;-67
2021/04/30 01:36:38;;;;;;;9.70;8.77;;;9.50;99.90;;;;;;5012666;28;20536;-67
2021/04/30 01:39:09;;;;;;;10.77;9.87;;;9.40;99.90;;;;;;5012721;28;20433;-67
2021/04/30 01:41:37;;;;;;;9.20;8.40;;;9.40;99.90;;;;;;5013457;28;20788;-67
2021/04/30 01:44:07;;;;;;;11.30;10.03;;;9.40;99.90;;;;;;5012985;28;20429;-67
2021/04/30 01:46:33;;;;;;;11.80;9.43;;;9.50;99.90;;;;;;5010861;28;20525;-67
2021/04/30 01:48:58;;;;;;;11.23;9.73;;;9.50;99.90;;;;;;5012586;28;20560;-67
2021/04/30 01:51:24;;;;;;;10.17;9.10;;;9.50;99.90;;;;;;5012783;28;20202;-67
2021/04/30 01:53:49;;;;;;;10.27;9.30;;;9.50;99.90;;;;;;5012565;28;20190;-67
2021/04/30 01:56:15;;;;;;;12.63;10.00;;;9.50;99.90;;;;;;5012880;28;20264;-67
2021/04/30 01:58:42;;;;;;;13.20;11.07;;;9.50;99.90;;;;;;5012353;28;20555;-67
2021/04/30 02:01:09;;;;;;;9.67;8.77;;;9.40;99.90;;;;;;5012018;28;20930;-67
2021/04/30 02:03:35;;;;;;;11.23;10.13;;;9.40;99.90;;;;;;5011189;28;20487;-67
2021/04/30 02:06:01;;;;;;;10.27;9.37;;;9.40;99.90;;;;;;5012488;28;20536;-67
2021/04/30 02:08:27;;;;;;;10.30;9.33;;;9.50;99.90;;;;;;5001873;28;20493;-67
2021/04/30 02:10:54;;;;;;;11.60;10.20;;;9.50;99.90;;;;;;5007109;28;20426;-67
2021/04/30 02:13:21;;;;;;;10.37;9.37;;;9.50;99.90;;;;;;5009061;28;20525;-67
2021/04/30 02:15:49;;;;;;;10.77;9.43;;;9.40;99.90;;;;;;5012162;28;20466;-67
2021/04/30 02:18:15;;;;;;;12.27;10.97;;;9.40;99.90;;;;;;5012511;28;20426;-67
2021/04/30 02:20:41;;;;;;;11.73;10.53;;;9.50;99.90;;;;;;5011345;28;20438;-67
2021/04/30 02:23:08;;;;;;;11.70;10.60;;;9.50;99.90;;;;;;5011873;28;20509;-67
2021/04/30 02:25:34;;;;;;;11.50;9.83;;;9.50;99.90;;;;;;5011891;28;20485;-67
2021/04/30 02:28:01;;;;;;;13.93;12.53;;;9.40;99.90;;;;;;5012130;28;20469;-67
2021/04/30 02:30:28;;;;;;;13.37;12.10;;;9.20;99.90;;;;;;5011354;28;20461;-67
2021/04/30 02:32:54;;;;;;;12.80;11.50;;;9.10;99.90;;;;;;5012129;28;20799;-67
2021/04/30 02:35:40;;;;;;;13.70;12.30;;;9.10;99.90;;;;;;5011353;28;20864;-67
2021/04/30 02:38:08;;;;;;;13.10;11.80;;;9.10;99.90;;;;;;5000655;28;20950;-67
2021/04/30 02:40:35;;;;;;;12.20;11.00;;;8.90;99.90;;;;;;5010899;28;20434;-67
2021/04/30 02:43:04;;;;;;;12.50;11.40;;;8.90;99.90;;;;;;4999877;28;20473;-67
2021/04/30 02:45:29;;;;;;;14.00;12.60;;;8.80;99.90;;;;;;5011914;28;20552;-67
2021/04/30 02:47:56;;;;;;;14.30;12.90;;;8.80;99.90;;;;;;5011835;28;20553;-67
2021/04/30 02:50:24;;;;;;;13.80;12.30;;;8.90;99.90;;;;;;5011100;28;20551;-67
2021/04/30 02:52:50;;;;;;;13.00;11.50;;;9.00;99.90;;;;;;5009526;28;20433;-67
2021/04/30 02:55:20;;;;;;;13.50;12.10;;;8.90;99.90;;;;;;5012026;28;20616;-67
2021/04/30 02:57:48;;;;;;;13.17;11.93;;;8.90;99.90;;;;;;5012091;28;20441;-67
2021/04/30 03:00:14;;;;;;;14.30;12.80;;;8.60;99.90;;;;;;5010970;28;20961;-67
2021/04/30 03:02:40;;;;;;;12.30;11.10;;;8.50;99.90;;;;;;5011567;28;20556;-67
2021/04/30 03:05:06;;;;;;;13.97;12.53;;;8.40;99.90;;;;;;5011454;28;20195;-67
2021/04/30 03:07:32;;;;;;;13.53;12.23;;;8.50;99.90;;;;;;5011139;28;20191;-67
2021/04/30 03:09:57;;;;;;;14.37;12.87;;;8.40;99.90;;;;;;5010843;28;20445;-67
2021/04/30 03:12:23;;;;;;;14.20;12.80;;;8.40;99.90;;;;;;5011625;28;20229;-67
2021/04/30 03:14:48;;;;;;;14.87;12.00;;;8.50;99.90;;;;;;5010688;28;20245;-67
2021/04/30 03:17:14;;;;;;;12.90;10.83;;;8.50;99.90;;;;;;5011608;28;20178;-67
2021/04/30 03:19:39;;;;;;;13.00;11.70;;;8.50;99.90;;;;;;4995955;28;20183;-67
2021/04/30 03:22:05;;;;;;;15.03;13.50;;;8.50;99.90;;;;;;5011459;28;20186;-67
2021/04/30 03:24:30;;;;;;;13.33;12.03;;;8.60;99.90;;;;;;5011201;28;20675;-67
2021/04/30 03:26:56;;;;;;;13.30;11.33;;;8.70;99.90;;;;;;5011485;28;20222;-67
2021/04/30 03:29:21;;;;;;;13.00;11.70;;;8.60;99.90;;;;;;5010315;28;20243;-67
2021/04/30 03:31:47;;;;;;;13.57;12.23;;;8.60;99.90;;;;;;5011320;28;20181;-67
2021/04/30 03:34:13;;;;;;;15.27;13.30;;;8.60;99.90;;;;;;5010943;28;20186;-67
2021/04/30 03:36:38;;;;;;;14.87;13.30;;;8.60;99.90;;;;;;5011314;28;20183;-67
2021/04/30 03:39:06;;;;;;;13.77;12.47;;;8.70;99.90;;;;;;5010533;28;20197;-67
2021/04/30 03:41:31;;;;;;;12.97;11.73;;;8.80;99.90;;;;;;5010836;28;20211;-67
2021/04/30 03:43:57;;;;;;;13.20;11.90;;;8.70;99.90;;;;;;5010739;28;20446;-67
2021/04/30 03:46:23;;;;;;;13.00;11.67;;;8.70;99.90;;;;;;5010661;28;20592;-67
2021/04/30 03:48:48;;;;;;;14.07;12.60;;;8.80;99.90;;;;;;5002760;28;20226;-67
2021/04/30 03:51:14;;;;;;;14.00;12.60;;;8.80;99.90;;;;;;5010261;28;20985;-67
2021/04/30 03:53:40;;;;;;;12.57;11.27;;;8.80;99.90;;;;;;5010736;28;20171;-67
2021/04/30 03:56:05;;;;;;;14.30;12.90;;;8.80;99.90;;;;;;5010752;28;20672;-67
2021/04/30 03:58:31;;;;;;;14.43;12.97;;;8.90;99.90;;;;;;5010434;28;20179;-67
2021/04/30 04:00:56;;;;;;;13.73;11.73;;;8.90;99.90;;;;;;5009839;28;20183;-67
2021/04/30 04:03:22;;;;;;;13.90;12.53;;;8.80;99.90;;;;;;4997838;28;20203;-67
2021/04/30 04:05:47;;;;;;;13.13;11.90;;;8.80;99.90;;;;;;5010409;28;20664;-67
2021/04/30 04:08:13;;;;;;;13.50;12.10;;;8.70;99.90;;;;;;5010773;28;20202;-67
2021/04/30 04:10:38;;;;;;;14.53;13.13;;;8.70;99.90;;;;;;5009935;28;20210;-67
2021/04/30 04:13:22;;;;;;;14.97;13.40;;;8.70;99.90;;;;;;5009235;28;20190;-67
2021/04/30 04:15:48;;;;;;;12.77;11.47;;;8.80;99.90;;;;;;5008954;28;20202;-67
2021/04/30 04:18:15;;;;;;;13.40;11.73;;;8.90;99.90;;;;;;5008454;28;20445;-67
2021/04/30 04:20:41;;;;;;;13.20;11.90;;;8.80;99.90;;;;;;5014083;28;20448;-67
2021/04/30 04:23:07;;;;;;;13.53;12.00;;;8.80;99.90;;;;;;5010415;28;20533;-67
2021/04/30 04:25:33;;;;;;;14.47;13.07;;;8.80;99.90;;;;;;5014478;28;20241;-67
2021/04/30 04:27:59;;;;;;;15.10;12.13;;;8.90;99.90;;;;;;5013359;28;20492;-67
2021/04/30 04:30:25;;;;;;;13.40;12.10;;;8.90;99.90;;;;;;5013180;28;20939;-67
2021/04/30 04:32:52;;;;;;;12.60;11.50;;;8.90;99.90;;;;;;5014396;28;20179;-67
2021/04/30 04:35:18;;;;;;;13.27;12.07;;;9.00;99.90;;;;;;5014612;28;20499;-67
2021/04/30 04:37:44;;;;;;;13.10;11.90;;;8.90;99.90;;;;;;5014515;28;20943;-67
2021/04/30 04:40:10;;;;;;;12.70;11.40;;;8.90;99.90;;;;;;5013736;28;20490;-67
2021/04/30 04:42:36;;;;;;;12.20;10.97;;;8.90;99.90;;;;;;5014045;28;20194;-67
2021/04/30 04:45:02;;;;;;;13.40;11.90;;;9.00;99.90;;;;;;5014653;28;20481;-67
2021/04/30 04:47:28;;;;;;;12.80;11.60;;;9.00;99.90;;;;;;5013160;28;20688;-67
2021/04/30 04:49:53;;;;;;;13.03;10.60;;;9.10;99.90;;;;;;5013273;28;20500;-67
2021/04/30 04:52:19;;;;;;;12.40;11.20;;;9.10;99.90;;;;;;5013963;28;20189;-67
2021/04/30 04:54:44;;;;;;;13.30;11.90;;;9.20;99.90;;;;;;5014076;28;20195;-67
2021/04/30 04:57:10;;;;;;;12.93;11.63;;;9.20;99.90;;;;;;5013882;28;20649;-67
2021/04/30 04:59:35;;;;;;;11.67;10.57;;;9.20;99.90;;;;;;5013107;28;20202;-67
2021/04/30 05:02:01;;;;;;;12.57;11.27;;;9.10;99.90;;;;;;5013370;28;20219;-67
2021/04/30 05:04:26;;;;;;;11.97;10.60;;;9.10;99.90;;;;;;5010687;28;20199;-67
2021/04/30 05:06:52;;;;;;;12.10;11.00;;;9.20;99.90;;;;;;5021239;28;20245;-67
2021/04/30 05:09:17;;;;;;;11.77;10.67;;;9.20;99.90;;;;;;5020862;28;20182;-67
2021/04/30 05:11:43;;;;;;;13.30;12.00;;;9.20;99.90;;;;;;5014153;28;21530;-67
2021/04/30 05:14:08;;;;;;;12.70;11.40;;;9.30;99.90;;;;;;5013575;28;20185;-67
2021/04/30 05:16:34;;;;;;;12.53;11.23;;;9.40;99.90;;;;;;5013653;28;20575;-67
2021/04/30 05:19:00;;;;;;;11.60;10.47;;;9.40;99.90;;;;;;5013099;28;20171;-67
2021/04/30 05:21:25;;;;;;;11.57;10.40;;;9.40;99.90;;;;;;5020716;28;20175;-67
2021/04/30 05:23:51;;;;;;;12.33;11.10;;;9.50;99.90;;;;;;5014413;28;20433;-67
2021/04/30 05:26:17;;;;;;;13.73;12.30;;;9.50;99.90;;;;;;5013308;28;20198;-67
2021/04/30 05:28:42;;;;;;;13.63;12.27;;;9.60;99.90;;;;;;5014525;28;20619;-67
2021/04/30 05:31:08;;;;;;;12.93;11.60;;;9.60;99.90;;;;;;5015231;28;20233;-67
2021/04/30 05:33:33;;;;;;;16.90;13.40;;;9.70;99.90;;;;;;5013479;28;20676;-67
2021/04/30 05:35:59;;;;;;;13.73;12.40;;;9.60;99.90;;;;;;5014366;28;20195;-67
2021/04/30 05:38:25;;;;;;;15.20;12.93;;;9.60;99.90;;;;;;5018432;28;20209;-67
2021/04/30 05:40:50;;;;;;;13.77;12.30;;;9.60;99.90;;;;;;5021998;28;20262;-67
2021/04/30 05:43:16;;;;;;;15.67;13.90;;;9.50;99.90;;;;;;5014790;28;20170;-67
2021/04/30 05:45:45;;;;;;;12.20;11.00;;;9.50;99.90;;;;;;5018171;28;20211;-67
2021/04/30 05:48:10;;;;;;;14.47;13.00;;;9.60;99.90;;;;;;5013379;28;20504;-67
2021/04/30 05:50:36;;;;;;;13.87;12.53;;;9.70;99.90;;;;;;5010365;28;20790;-67
2021/04/30 05:53:02;;;;;;;14.03;12.63;;;9.80;99.90;;;;;;5012749;28;20171;-67
2021/04/30 05:55:27;;;;;;;15.47;14.00;;;9.90;99.90;;;;;;5012002;28;20198;-67
2021/04/30 05:57:53;;;;;;;14.77;13.47;;;10.00;99.90;;;;;;5006731;28;20175;-67
2021/04/30 06:00:19;;;;;;;15.50;14.00;;;10.10;99.90;;;;;;5006957;28;20246;-67
2021/04/30 06:02:45;;;;;;;14.13;12.73;;;10.20;99.90;;;;;;5009305;28;20175;-69
2021/04/30 06:05:11;;;;;;;14.63;13.33;;;10.20;99.90;;;;;;5009750;28;20861;-69
2021/04/30 06:07:36;;;;;;;14.07;12.60;;;10.30;99.90;;;;;;5012905;28;20198;-69
2021/04/30 06:10:03;;;;;;;14.07;12.67;;;10.30;99.90;;;;;;5009697;28;20460;-69
2021/04/30 06:12:29;;;;;;;14.77;13.37;;;10.40;99.90;;;;;;5008299;28;20484;-68
2021/04/30 06:14:55;;;;;;;15.40;13.90;;;10.50;99.90;;;;;;5006833;28;20449;-67
2021/04/30 06:17:21;;;;;;;16.20;14.27;;;10.50;99.90;;;;;;4994268;28;20449;-66
2021/04/30 06:19:46;;;;;;;15.97;14.30;;;10.40;99.90;;;;;;4981054;28;20406;-67
2021/04/30 06:22:12;;;;;;;15.80;14.30;;;10.40;99.90;;;;;;5000247;28;20233;-66
2021/04/30 06:24:38;;;;;;;13.90;12.43;;;10.40;99.90;;;;;;5009318;28;20630;-67
2021/04/30 06:27:04;;;;;;;15.33;13.83;;;10.30;99.90;;;;;;5007433;28;20217;-66
2021/04/30 06:29:30;;;;;;;14.43;12.93;;;10.20;99.90;;;;;;5004656;28;20189;-67
2021/04/30 06:31:56;;;;;;;13.90;12.70;;;10.20;99.90;;;;;;5008132;28;20434;-66
2021/04/30 06:34:24;;;;;;;13.97;12.40;;;10.10;99.90;;;;;;5008672;28;20197;-66
2021/04/30 06:36:50;;;;;;;13.93;12.63;;;9.90;99.90;;;;;;5008421;28;20440;-66
2021/04/30 06:39:16;;;;;;;17.50;12.60;;;9.90;99.90;;;;;;5003445;28;20433;-68
2021/04/30 06:41:41;;;;;;;15.37;12.23;;;10.00;99.90;;;;;;5007165;28;20449;-68
2021/04/30 06:44:07;;;;;;;14.87;12.93;;;10.00;99.90;;;;;;5002800;28;20182;-67
2021/04/30 06:46:33;;;;;;;13.47;12.07;;;10.00;99.90;;;;;;5005313;28;20634;-67
2021/04/30 06:48:58;;;;;;;12.00;10.80;;;10.00;99.90;;;;;;5004744;28;20214;-67
2021/04/30 06:51:24;;;;;;;13.87;12.57;;;9.90;99.90;;;;;;5006364;28;20590;-67
2021/04/30 06:53:49;;;;;;;16.10;14.50;;;10.00;99.90;;;;;;5005598;28;20183;-67
2021/04/30 06:56:15;;;;;;;13.70;12.40;;;9.90;99.90;;;;;;5006985;28;20195;-67
2021/04/30 06:58:41;;;;;;;13.87;11.90;;;9.80;99.90;;;;;;5002467;28;20179;-67
2021/04/30 07:01:09;;;;;;;12.20;11.10;;;9.80;99.90;;;;;;5006042;28;20179;-67
2021/04/30 07:03:34;;;;;;;13.23;11.93;;;9.70;99.90;;;;;;5000279;28;20718;-67
2021/04/30 07:06:00;;;;;;;12.50;11.37;;;9.70;99.90;;;;;;5003758;28;20453;-67
2021/04/30 07:08:25;;;;;;;12.73;11.53;;;9.80;99.90;;;;;;5000086;28;20710;-67
2021/04/30 07:10:51;;;;;;;11.97;10.77;;;9.80;99.90;;;;;;4989133;28;20359;-67
2021/04/30 07:13:17;;;;;;;12.73;11.53;;;9.90;99.90;;;;;;5007039;28;20183;-67
2021/04/30 07:15:44;;;;;;;13.37;11.97;;;10.00;99.90;;;;;;5007659;28;20202;-68
2021/04/30 07:18:09;;;;;;;14.80;12.33;;;10.00;99.90;;;;;;4996728;28;20964;-68
2021/04/30 07:20:35;;;;;;;18.83;16.17;;;10.00;99.90;;;;;;5007297;28;20476;-67
2021/04/30 07:23:02;;;;;;;13.30;12.03;;;10.00;99.90;;;;;;5007838;28;20183;-68
2021/04/30 07:25:28;;;;;;;16.50;12.20;;;9.90;99.90;;;;;;5007946;28;20656;-68
2021/04/30 07:27:54;;;;;;;12.67;11.37;;;10.10;99.90;;;;;;5003925;28;20480;-68
2021/04/30 07:30:20;;;;;;;14.10;12.50;;;10.00;99.90;;;;;;5005497;28;21075;-68
2021/04/30 07:32:45;;;;;;;13.80;12.00;;;9.90;99.90;;;;;;5005681;28;20179;-68
2021/04/30 07:35:11;;;;;;;13.37;10.90;;;9.90;99.90;;;;;;5004499;28;20931;-67
2021/04/30 07:37:37;;;;;;;15.90;11.90;;;9.90;99.90;;;;;;5002881;28;20190;-68
2021/04/30 07:40:05;;;;;;;11.63;10.53;;;10.10;99.90;;;;;;5001887;28;20233;-67
2021/04/30 07:42:31;;;;;;;12.47;11.17;;;10.30;99.90;;;;;;5001915;28;20433;-67
2021/04/30 07:44:56;;;;;;;11.93;10.67;;;10.20;99.90;;;;;;5005708;28;20845;-68
2021/04/30 07:47:22;;;;;;;14.20;11.43;;;10.20;99.90;;;;;;5004360;28;20203;-68
2021/04/30 07:49:47;;;;;;;13.63;10.80;;;10.10;99.90;;;;;;5006137;28;20648;-68
2021/04/30 07:52:13;;;;;;;12.07;11.00;;;10.00;99.90;;;;;;5003676;28;20183;-67
2021/04/30 07:54:38;;;;;;;14.63;11.40;;;10.00;99.90;;;;;;4999092;28;20413;-67
2021/04/30 07:57:05;;;;;;;13.23;11.60;;;10.00;99.90;;;;;;4997159;28;20183;-68
2021/04/30 07:59:31;;;;;;;13.77;11.37;;;9.90;99.90;;;;;;5001952;28;20269;-67
2021/04/30 08:01:56;;;;;;;13.90;12.47;;;9.90;99.90;;;;;;5003887;28;20471;-67
2021/04/30 08:04:22;;;;;;;11.10;10.03;;;10.00;99.90;;;;;;5001620;28;20853;-67
2021/04/30 08:06:48;;;;;;;14.20;11.27;;;10.00;99.90;;;;;;5005428;28;20183;-67
2021/04/30 08:09:13;;;;;;;11.90;10.70;;;10.00;99.90;;;;;;5004215;28;20815;-67
2021/04/30 08:11:39;;;;;;;13.70;11.70;;;10.10;99.90;;;;;;5006722;28;20628;-67
2021/04/30 08:14:08;;;;;;;12.37;11.17;;;10.20;99.90;;;;;;5007013;28;20181;-67
2021/04/30 08:16:35;;;;;;;18.30;14.90;;;10.20;99.90;;;;;;4988288;28;20175;-67
2021/04/30 08:19:01;;;;;;;13.47;12.27;;;10.00;99.90;;;;;;4999609;28;20433;-67
2021/04/30 08:21:30;;;;;;;11.90;10.90;;;10.10;99.90;;;;;;5007388;28;20500;-67
2021/04/30 08:23:56;;;;;;;12.57;11.37;;;10.10;99.90;;;;;;5004921;28;20673;-68
2021/04/30 08:26:22;;;;;;;12.40;11.20;;;10.00;99.90;;;;;;5003499;28;20460;-67
2021/04/30 08:28:48;;;;;;;12.17;10.97;;;10.10;99.90;;;;;;5003812;28;20465;-68
2021/04/30 08:31:14;;;;;;;13.30;10.40;;;10.20;99.90;;;;;;4993147;28;20207;-67
2021/04/30 08:33:40;;;;;;;11.77;10.67;;;10.20;99.90;;;;;;4987894;28;20469;-67
2021/04/30 08:36:05;;;;;;;13.40;10.20;;;10.10;99.90;;;;;;4988684;28;20203;-67
2021/04/30 08:38:31;;;;;;;12.03;10.83;;;10.10;99.90;;;;;;4995868;28;20179;-67
2021/04/30 08:41:00;;;;;;;13.33;12.00;;;10.20;99.90;;;;;;5005647;28;20201;-67
2021/04/30 08:43:25;;;;;;;12.83;11.63;;;10.30;99.90;;;;;;5000679;28;20183;-66
2021/04/30 08:45:54;;;;;;;13.30;12.00;;;10.40;99.90;;;;;;5003829;28;20567;-66
2021/04/30 08:48:21;;;;;;;14.43;12.10;;;10.60;99.90;;;;;;5002822;28;20241;-66
2021/04/30 08:50:47;;;;;;;13.23;11.83;;;10.60;99.90;;;;;;5001751;28;20437;-66
2021/04/30 08:53:13;;;;;;;12.43;11.33;;;10.60;99.90;;;;;;5004355;28;20428;-66
2021/04/30 08:55:39;;;;;;;12.00;10.43;;;10.80;99.90;;;;;;5006722;28;20691;-66
2021/04/30 08:58:07;;;;;;;11.80;10.67;;;11.00;99.90;;;;;;5001959;28;20446;-66
2021/04/30 09:00:33;;;;;;;12.30;11.17;;;11.20;99.90;;;;;;5005747;28;20977;-66
2021/04/30 09:02:59;;;;;;;14.17;12.67;;;11.00;99.90;;;;;;5002287;28;20434;-66
2021/04/30 09:05:30;;;;;;;14.50;13.10;;;10.90;99.90;;;;;;5005307;28;20199;-66
2021/04/30 09:07:58;;;;;;;12.57;11.37;;;10.90;99.90;;;;;;5001516;28;20469;-66
2021/04/30 09:10:24;;;;;;;17.83;12.73;;;10.80;99.90;;;;;;5005741;28;20826;-66
2021/04/30 09:13:02;;;;;;;12.77;11.47;;;10.80;99.90;;;;;;5005627;28;20489;-66
2021/04/30 09:15:28;;;;;;;14.37;12.97;;;10.70;99.90;;;;;;5007899;28;20796;-66
2021/04/30 09:17:56;;;;;;;12.53;11.23;;;10.70;99.90;;;;;;5003388;28;20876;-66
2021/04/30 09:20:22;;;;;;;13.73;12.43;;;10.50;99.90;;;;;;4997048;28;20453;-67
2021/04/30 09:22:48;;;;;;;14.33;12.80;;;10.30;99.90;;;;;;5001186;28;20433;-66
2021/04/30 09:25:19;;;;;;;15.73;14.20;;;10.10;99.90;;;;;;5008591;28;20214;-66
2021/04/30 09:27:53;;;;;;;14.57;13.17;;;9.90;99.90;;;;;;5007689;28;20203;-66
2021/04/30 09:30:32;;;;;;;16.10;13.63;;;9.90;99.90;;;;;;5006499;28;20513;-67
2021/04/30 09:33:15;;;;;;;16.10;12.43;;;9.90;99.90;;;;;;4996757;28;20967;-66
2021/04/30 09:35:43;;;;;;;13.80;12.57;;;9.90;99.90;;;;;;4997997;28;20608;-67
2021/04/30 09:38:22;;;;;;;15.27;13.67;;;10.10;99.90;;;;;;5006019;28;20436;-67
2021/04/30 09:40:49;;;;;;;13.90;12.60;;;10.00;99.90;;;;;;4994912;28;20495;-66
2021/04/30 09:43:16;;;;;;;15.20;13.70;;;10.20;99.90;;;;;;5007778;28;20486;-66
2021/04/30 09:45:45;;;;;;;16.43;12.67;;;10.20;99.90;;;;;;5009059;28;20480;-65
2021/04/30 09:48:12;;;;;;;14.80;13.43;;;10.30;99.90;;;;;;4998471;28;20529;-67
2021/04/30 09:50:40;;;;;;;14.03;12.70;;;10.40;99.90;;;;;;5011180;28;20480;-67
2021/04/30 09:53:12;;;;;;;15.60;13.67;;;10.60;99.90;;;;;;5010165;28;20441;-66
2021/04/30 09:55:49;;;;;;;15.73;12.60;;;10.80;99.90;;;;;;5004501;28;20466;-66
2021/04/30 09:58:23;;;;;;;13.97;12.67;;;10.70;99.90;;;;;;5007269;28;20438;-66
2021/04/30 10:00:50;;;;;;;14.80;13.40;;;10.50;99.90;;;;;;5005022;28;20913;-66
2021/04/30 10:03:19;;;;;;;16.63;15.03;;;10.40;99.90;;;;;;5010823;28;20429;-66
2021/04/30 10:06:10;;;;;;;14.10;12.80;;;10.50;99.90;;;;;;5012816;28;20537;-66
2021/04/30 10:08:36;;;;;;;14.97;13.60;;;10.50;99.90;;;;;;5006743;28;20465;-68
2021/04/30 10:11:03;;;;;;;15.27;13.77;;;10.50;99.90;;;;;;5012171;28;20985;-68
2021/04/30 10:13:30;;;;;;;18.77;16.67;;;10.60;99.90;;;;;;5011388;28;20217;-68
2021/04/30 10:15:56;;;;;;;18.50;16.50;;;10.40;99.90;;;;;;5011320;28;20450;-68
2021/04/30 10:18:24;;;;;;;17.30;15.60;;;10.30;99.90;;;;;;4998760;28;20429;-68
2021/04/30 10:20:50;;;;;;;17.47;15.60;;;10.30;99.90;;;;;;5004138;28;21088;-68
2021/04/30 10:23:20;;;;;;;19.03;15.40;;;10.10;99.90;;;;;;5012547;28;20472;-68
2021/04/30 10:25:50;;;;;;;18.70;15.47;;;10.00;99.90;;;;;;5011160;28;20203;-66
2021/04/30 10:28:28;;;;;;;18.83;15.97;;;10.00;99.90;;;;;;5004639;28;20453;-68
2021/04/30 10:31:07;;;;;;;19.77;15.57;;;9.90;99.90;;;;;;5005931;28;20930;-68
2021/04/30 10:33:46;;;;;;;18.30;16.40;;;9.80;99.90;;;;;;5012236;28;20524;-67
2021/04/30 10:36:28;;;;;;;17.37;15.73;;;9.70;99.90;;;;;;5011029;28;20453;-67
2021/04/30 10:38:55;;;;;;;23.93;17.90;;;9.60;99.90;;;;;;5000385;28;20950;-66
2021/04/30 10:41:35;;;;;;;21.00;18.20;;;9.50;99.90;;;;;;5009789;28;20934;-66
2021/04/30 10:44:23;;;;;;;18.10;16.20;;;9.40;99.90;;;;;;5009921;28;20454;-68
2021/04/30 10:46:51;;;;;;;20.50;17.47;;;9.30;99.90;;;;;;5004191;28;20437;-67
2021/04/30 10:49:20;;;;;;;20.27;17.57;;;9.10;99.90;;;;;;4999328;28;20465;-66
2021/04/30 10:52:15;;;;;;;27.83;21.53;;;8.90;99.90;;;;;;5009142;28;20949;-66
2021/04/30 10:54:42;;;;;;;24.53;19.50;;;8.70;99.90;;;;;;4999343;28;20465;-68
2021/04/30 10:57:19;;;;;;;24.43;20.10;;;8.70;99.90;;;;;;5009847;28;20426;-68
2021/04/30 10:59:46;;;;;;;27.30;20.37;;;8.60;99.90;;;;;;5003779;28;20473;-68
2021/04/30 11:02:29;;;;;;;24.50;21.77;;;8.60;99.90;;;;;;5007401;28;20954;-67
2021/04/30 11:05:11;;;;;;;27.53;21.37;;;8.70;99.90;;;;;;5007395;28;20541;-67
2021/04/30 11:07:52;;;;;;;22.87;20.10;;;8.60;99.90;;;;;;5003116;28;20461;-66
2021/04/30 11:10:20;;;;;;;21.60;18.50;;;8.50;99.90;;;;;;4999679;28;20422;-67
2021/04/30 11:12:53;;;;;;;23.57;18.60;;;8.30;99.90;;;;;;5007840;28;20459;-65
2021/04/30 11:15:18;;;;;;;22.03;19.00;;;8.10;99.90;;;;;;5010676;28;20445;-66
2021/04/30 11:18:01;;;;;;;24.07;17.80;;;7.90;99.90;;;;;;5004833;28;20457;-67
2021/04/30 11:20:31;;;;;;;22.80;18.57;;;8.00;99.90;;;;;;5003356;28;20178;-67
2021/04/30 11:23:22;;;;;;;23.77;18.27;;;7.90;99.90;;;;;;5009220;28;20944;-66
2021/04/30 11:25:57;;;;;;;23.33;19.13;;;7.80;99.90;;;;;;5006559;28;20500;-68
2021/04/30 11:28:29;;;;;;;20.70;16.90;;;7.70;99.90;;;;;;5003912;28;20468;-68
2021/04/30 11:31:05;;;;;;;22.17;18.23;;;7.80;99.90;;;;;;5004132;28;20468;-68
2021/04/30 11:33:35;;;;;;;23.47;19.27;;;8.00;99.90;;;;;;5000527;28;20969;-68
2021/04/30 11:36:03;;;;;;;20.63;18.27;;;8.20;99.90;;;;;;5007763;28;20930;-69
2021/04/30 11:38:49;;;;;;;19.23;17.23;;;8.30;99.90;;;;;;4998923;28;20486;-69
2021/04/30 11:41:15;;;;;;;21.60;19.30;;;8.30;99.90;;;;;;5008452;28;20417;-69
2021/04/30 11:43:47;;;;;;;21.63;18.53;;;8.30;99.90;;;;;;5006951;28;20684;-69
2021/04/30 11:46:13;;;;;;;22.67;20.07;;;8.40;99.90;;;;;;4998413;28;20729;-68
2021/04/30 11:48:42;;;;;;;23.43;20.97;;;8.60;99.90;;;;;;5000547;28;20461;-68
2021/04/30 11:51:11;;;;;;;19.23;17.33;;;8.40;99.90;;;;;;5004721;28;20950;-68
2021/04/30 11:53:40;;;;;;;21.13;19.03;;;8.30;99.90;;;;;;5007411;28;20529;-68
2021/04/30 11:56:06;;;;;;;20.70;17.40;;;8.30;99.90;;;;;;5005932;28;20457;-67
2021/04/30 11:58:44;;;;;;;20.87;18.67;;;8.20;99.90;;;;;;5001873;28;20492;-67
2021/04/30 12:01:11;;;;;;;24.43;17.30;;;8.10;99.90;;;;;;5003092;28;20468;-68
2021/04/30 12:03:48;;;;;;;20.70;18.10;;;8.10;99.90;;;;;;5005117;28;20886;-66
2021/04/30 12:06:16;;;;;;;19.20;17.07;;;7.90;99.90;;;;;;5002620;28;20461;-66
2021/04/30 12:08:42;;;;;;;18.80;16.90;;;7.70;99.90;;;;;;4992392;28;20466;-67
2021/04/30 12:11:09;;;;;;;19.67;16.93;;;7.60;99.90;;;;;;5006493;28;20433;-67
2021/04/30 12:13:41;;;;;;;17.27;15.47;;;7.60;99.90;;;;;;5003353;28;20437;-68
2021/04/30 12:16:14;;;;;;;21.03;16.13;;;7.60;99.90;;;;;;5003814;28;21060;-68
2021/04/30 12:18:40;;;;;;;18.60;16.50;;;7.70;99.90;;;;;;5005374;28;20437;-68
2021/04/30 12:21:05;;;;;;;19.47;15.90;;;7.60;99.90;;;;;;5006743;28;21009;-68
2021/04/30 12:23:31;;;;;;;21.53;16.40;;;7.70;99.90;;;;;;5000022;28;20182;-69
2021/04/30 12:25:57;;;;;;;19.83;16.03;;;7.60;99.90;;;;;;4998586;28;20589;-69
2021/04/30 12:28:30;;;;;;;19.77;16.60;;;7.60;99.90;;;;;;5004080;28;20210;-69
2021/04/30 12:31:09;;;;;;;18.83;15.60;;;7.70;99.90;;;;;;5005327;28;20187;-69
2021/04/30 12:33:47;;;;;;;17.33;15.40;;;7.80;99.90;;;;;;5004605;28;20532;-68
2021/04/30 12:36:22;;;;;;;18.93;15.87;;;7.90;99.90;;;;;;4996853;28;20453;-69
2021/04/30 12:38:53;;;;;;;19.90;17.23;;;8.00;99.90;;;;;;5003098;28;20425;-68